sensor_id;sensor_type;location;lat;lon;timestamp;pressure;altitude;pressure_sealevel;temperature;humidity
73566;BME280;61846;52.970;-3.168;2023-10-13T00:01:01;99516.64;;;16.14;55.15
73566;BME280;61846;52.970;-3.168;2023-10-13T00:03:26;99509.83;;;16.86;53.67
73566;BME280;61846;52.970;-3.168;2023-10-13T00:05:51;99506.12;;;16.65;54.92
73566;BME280;61846;52.970;-3.168;2023-10-13T00:08:17;99504.61;;;16.84;54.38
73566;BME280;61846;52.970;-3.168;2023-10-13T00:10:43;99499.84;;;16.32;55.63
73566;BME280;61846;52.970;-3.168;2023-10-13T00:13:08;99498.67;;;16.64;55.20
73566;BME280;61846;52.970;-3.168;2023-10-13T00:15:37;99492.35;;;16.27;55.98
73566;BME280;61846;52.970;-3.168;2023-10-13T00:17:59;99486.43;;;16.37;55.67
73566;BME280;61846;52.970;-3.168;2023-10-13T00:20:24;99478.98;;;16.18;55.36
73566;BME280;61846;52.970;-3.168;2023-10-13T00:22:50;99474.18;;;17.42;53.02
73566;BME280;61846;52.970;-3.168;2023-10-13T00:25:15;99474.95;;;16.59;54.36
73566;BME280;61846;52.970;-3.168;2023-10-13T00:27:41;99471.77;;;16.53;54.17
73566;BME280;61846;52.970;-3.168;2023-10-13T00:30:08;99465.41;;;16.51;54.45
73566;BME280;61846;52.970;-3.168;2023-10-13T00:32:32;99461.76;;;17.41;52.64
73566;BME280;61846;52.970;-3.168;2023-10-13T00:34:57;99460.03;;;16.77;53.50
73566;BME280;61846;52.970;-3.168;2023-10-13T00:37:23;99448.73;;;17.02;52.96
73566;BME280;61846;52.970;-3.168;2023-10-13T00:39:48;99444.68;;;17.04;53.19
73566;BME280;61846;52.970;-3.168;2023-10-13T00:42:14;99438.93;;;16.52;54.37
73566;BME280;61846;52.970;-3.168;2023-10-13T00:44:38;99431.14;;;16.58;54.29
73566;BME280;61846;52.970;-3.168;2023-10-13T00:47:04;99422.00;;;17.55;52.53
73566;BME280;61846;52.970;-3.168;2023-10-13T00:49:29;99408.54;;;16.50;54.23
73566;BME280;61846;52.970;-3.168;2023-10-13T00:51:54;99394.47;;;16.78;53.75
73566;BME280;61846;52.970;-3.168;2023-10-13T00:54:20;99385.60;;;17.18;53.15
73566;BME280;61846;52.970;-3.168;2023-10-13T00:56:46;99369.78;;;17.25;53.08
73566;BME280;61846;52.970;-3.168;2023-10-13T00:59:10;99361.05;;;17.41;52.78
73566;BME280;61846;52.970;-3.168;2023-10-13T01:01:36;99359.30;;;16.25;55.27
73566;BME280;61846;52.970;-3.168;2023-10-13T01:04:02;99358.37;;;16.78;53.39
73566;BME280;61846;52.970;-3.168;2023-10-13T01:06:28;99344.46;;;17.50;52.57
73566;BME280;61846;52.970;-3.168;2023-10-13T01:08:58;99342.70;;;17.62;52.36
73566;BME280;61846;52.970;-3.168;2023-10-13T01:11:19;99344.86;;;16.54;54.50
73566;BME280;61846;52.970;-3.168;2023-10-13T01:13:44;99341.21;;;17.45;52.75
73566;BME280;61846;52.970;-3.168;2023-10-13T01:16:09;99344.66;;;17.66;52.21
73566;BME280;61846;52.970;-3.168;2023-10-13T01:18:34;99322.05;;;17.46;52.85
73566;BME280;61846;52.970;-3.168;2023-10-13T01:21:04;99322.30;;;16.14;56.01
73566;BME280;61846;52.970;-3.168;2023-10-13T01:23:26;99318.28;;;17.13;54.25
73566;BME280;61846;52.970;-3.168;2023-10-13T01:25:50;99304.62;;;17.13;54.08
73566;BME280;61846;52.970;-3.168;2023-10-13T01:28:15;99303.08;;;16.35;55.75
73566;BME280;61846;52.970;-3.168;2023-10-13T01:30:41;99298.43;;;15.78;57.88
73566;BME280;61846;52.970;-3.168;2023-10-13T01:33:06;99286.64;;;16.88;55.11
73566;BME280;61846;52.970;-3.168;2023-10-13T01:35:31;99279.03;;;17.03;54.63
73566;BME280;61846;52.970;-3.168;2023-10-13T01:37:56;99271.40;;;16.31;55.61
73566;BME280;61846;52.970;-3.168;2023-10-13T01:40:21;99264.49;;;17.14;53.93
73566;BME280;61846;52.970;-3.168;2023-10-13T01:42:46;99250.11;;;17.63;52.67
73566;BME280;61846;52.970;-3.168;2023-10-13T01:45:11;99242.84;;;16.61;54.79
73566;BME280;61846;52.970;-3.168;2023-10-13T01:47:37;99236.60;;;16.68;55.24
73566;BME280;61846;52.970;-3.168;2023-10-13T01:50:03;99229.94;;;17.00;54.66
73566;BME280;61846;52.970;-3.168;2023-10-13T01:52:27;99223.76;;;17.12;53.73
73566;BME280;61846;52.970;-3.168;2023-10-13T01:54:53;99214.76;;;16.78;54.84
73566;BME280;61846;52.970;-3.168;2023-10-13T01:57:18;99210.69;;;16.86;54.97
73566;BME280;61846;52.970;-3.168;2023-10-13T01:59:44;99202.00;;;17.23;53.74
73566;BME280;61846;52.970;-3.168;2023-10-13T02:02:09;99197.06;;;17.50;52.63
73566;BME280;61846;52.970;-3.168;2023-10-13T02:04:34;99188.19;;;17.25;53.12
73566;BME280;61846;52.970;-3.168;2023-10-13T02:07:00;99185.61;;;16.28;55.44
73566;BME280;61846;52.970;-3.168;2023-10-13T02:09:25;99174.78;;;16.92;53.86
73566;BME280;61846;52.970;-3.168;2023-10-13T02:11:50;99165.31;;;17.30;53.49
73566;BME280;61846;52.970;-3.168;2023-10-13T02:14:15;99161.54;;;16.93;54.85
73566;BME280;61846;52.970;-3.168;2023-10-13T02:16:40;99151.75;;;17.50;53.14
73566;BME280;61846;52.970;-3.168;2023-10-13T02:19:06;99144.41;;;17.41;53.12
73566;BME280;61846;52.970;-3.168;2023-10-13T02:21:32;99134.82;;;16.66;54.90
73566;BME280;61846;52.970;-3.168;2023-10-13T02:23:57;99127.79;;;17.54;53.80
73566;BME280;61846;52.970;-3.168;2023-10-13T02:26:22;99118.06;;;17.42;53.43
73566;BME280;61846;52.970;-3.168;2023-10-13T02:28:48;99104.95;;;17.47;52.67
73566;BME280;61846;52.970;-3.168;2023-10-13T02:31:13;99100.82;;;16.74;54.93
73566;BME280;61846;52.970;-3.168;2023-10-13T02:33:38;99091.86;;;16.93;54.92
73566;BME280;61846;52.970;-3.168;2023-10-13T02:36:04;99077.01;;;17.29;53.38
73566;BME280;61846;52.970;-3.168;2023-10-13T02:38:29;99068.18;;;17.63;52.47
73566;BME280;61846;52.970;-3.168;2023-10-13T02:40:55;99057.74;;;17.68;52.15
73566;BME280;61846;52.970;-3.168;2023-10-13T02:43:21;99050.71;;;17.87;52.19
73566;BME280;61846;52.970;-3.168;2023-10-13T02:45:51;99034.54;;;17.67;52.36
73566;BME280;61846;52.970;-3.168;2023-10-13T02:48:11;99024.75;;;16.39;54.88
73566;BME280;61846;52.970;-3.168;2023-10-13T02:50:39;99020.39;;;16.68;54.55
73566;BME280;61846;52.970;-3.168;2023-10-13T02:53:02;99013.98;;;17.03;54.65
73566;BME280;61846;52.970;-3.168;2023-10-13T02:55:27;99006.44;;;16.19;56.17
73566;BME280;61846;52.970;-3.168;2023-10-13T02:57:52;98996.32;;;16.73;54.94
73566;BME280;61846;52.970;-3.168;2023-10-13T03:00:18;98992.32;;;17.25;53.69
73566;BME280;61846;52.970;-3.168;2023-10-13T03:02:43;98990.64;;;17.01;54.67
73566;BME280;61846;52.970;-3.168;2023-10-13T03:05:09;98986.55;;;17.23;53.76
73566;BME280;61846;52.970;-3.168;2023-10-13T03:07:35;98976.01;;;17.65;52.13
73566;BME280;61846;52.970;-3.168;2023-10-13T03:10:00;98970.52;;;17.87;51.78
73566;BME280;61846;52.970;-3.168;2023-10-13T03:12:25;98963.88;;;17.61;52.05
73566;BME280;61846;52.970;-3.168;2023-10-13T03:14:51;98962.55;;;17.79;52.19
73566;BME280;61846;52.970;-3.168;2023-10-13T03:17:16;98961.92;;;17.43;53.01
73566;BME280;61846;52.970;-3.168;2023-10-13T03:19:42;98953.38;;;17.32;53.24
73566;BME280;61846;52.970;-3.168;2023-10-13T03:22:10;98953.88;;;17.24;54.67
73566;BME280;61846;52.970;-3.168;2023-10-13T03:24:32;98942.43;;;17.71;52.75
73566;BME280;61846;52.970;-3.168;2023-10-13T03:26:57;98930.93;;;17.45;52.94
73566;BME280;61846;52.970;-3.168;2023-10-13T03:29:23;98929.57;;;16.95;54.83
73566;BME280;61846;52.970;-3.168;2023-10-13T03:31:48;98925.84;;;16.73;56.12
73566;BME280;61846;52.970;-3.168;2023-10-13T03:34:14;98922.00;;;16.77;55.79
73566;BME280;61846;52.970;-3.168;2023-10-13T03:36:39;98910.26;;;17.63;53.47
73566;BME280;61846;52.970;-3.168;2023-10-13T03:39:04;98905.16;;;17.38;54.63
73566;BME280;61846;52.970;-3.168;2023-10-13T03:41:30;98897.41;;;17.82;53.08
73566;BME280;61846;52.970;-3.168;2023-10-13T03:43:55;98896.15;;;16.66;55.68
73566;BME280;61846;52.970;-3.168;2023-10-13T03:46:21;98889.21;;;17.05;55.02
73566;BME280;61846;52.970;-3.168;2023-10-13T03:48:46;98880.41;;;17.77;53.23
73566;BME280;61846;52.970;-3.168;2023-10-13T03:51:11;98869.29;;;17.71;53.20
73566;BME280;61846;52.970;-3.168;2023-10-13T03:53:38;98863.58;;;17.23;53.52
73566;BME280;61846;52.970;-3.168;2023-10-13T03:56:05;98857.02;;;16.77;56.05
73566;BME280;61846;52.970;-3.168;2023-10-13T03:58:27;98852.06;;;16.21;56.60
73566;BME280;61846;52.970;-3.168;2023-10-13T04:00:53;98847.68;;;16.98;55.19
73566;BME280;61846;52.970;-3.168;2023-10-13T04:03:18;98835.79;;;16.04;56.91
73566;BME280;61846;52.970;-3.168;2023-10-13T04:05:44;98827.79;;;17.21;54.76
73566;BME280;61846;52.970;-3.168;2023-10-13T04:08:09;98820.42;;;17.84;52.91
73566;BME280;61846;52.970;-3.168;2023-10-13T04:10:35;98814.77;;;17.05;54.85
73566;BME280;61846;52.970;-3.168;2023-10-13T04:13:00;98808.04;;;17.51;53.88
73566;BME280;61846;52.970;-3.168;2023-10-13T04:15:25;98801.99;;;17.80;52.34
73566;BME280;61846;52.970;-3.168;2023-10-13T04:17:51;98800.02;;;17.22;54.21
73566;BME280;61846;52.970;-3.168;2023-10-13T04:20:16;98787.10;;;17.00;54.41
73566;BME280;61846;52.970;-3.168;2023-10-13T04:22:42;98795.53;;;16.78;54.81
73566;BME280;61846;52.970;-3.168;2023-10-13T04:25:07;98783.47;;;17.59;52.95
73566;BME280;61846;52.970;-3.168;2023-10-13T04:27:32;98779.54;;;17.21;54.46
73566;BME280;61846;52.970;-3.168;2023-10-13T04:29:58;98781.25;;;17.47;53.39
73566;BME280;61846;52.970;-3.168;2023-10-13T04:32:23;98773.41;;;17.90;52.88
73566;BME280;61846;52.970;-3.168;2023-10-13T04:34:48;98771.42;;;17.74;52.93
73566;BME280;61846;52.970;-3.168;2023-10-13T04:37:14;98773.42;;;17.15;54.29
73566;BME280;61846;52.970;-3.168;2023-10-13T04:39:40;98768.37;;;16.97;54.29
73566;BME280;61846;52.970;-3.168;2023-10-13T04:42:05;98767.58;;;16.74;55.52
73566;BME280;61846;52.970;-3.168;2023-10-13T04:44:30;98756.66;;;16.47;55.89
73566;BME280;61846;52.970;-3.168;2023-10-13T04:46:58;98752.23;;;16.93;55.19
73566;BME280;61846;52.970;-3.168;2023-10-13T04:49:21;98748.39;;;17.44;54.17
73566;BME280;61846;52.970;-3.168;2023-10-13T04:51:46;98746.53;;;16.95;55.12
73566;BME280;61846;52.970;-3.168;2023-10-13T04:54:12;98744.10;;;17.56;53.68
73566;BME280;61846;52.970;-3.168;2023-10-13T04:56:37;98742.10;;;17.76;53.18
73566;BME280;61846;52.970;-3.168;2023-10-13T04:59:02;98742.85;;;17.45;53.87
73566;BME280;61846;52.970;-3.168;2023-10-13T05:01:28;98745.36;;;17.29;53.70
73566;BME280;61846;52.970;-3.168;2023-10-13T05:03:53;98748.11;;;17.16;53.66
73566;BME280;61846;52.970;-3.168;2023-10-13T05:06:19;98733.64;;;17.41;53.24
73566;BME280;61846;52.970;-3.168;2023-10-13T05:08:44;98728.86;;;16.99;54.81
73566;BME280;61846;52.970;-3.168;2023-10-13T05:11:09;98736.32;;;17.28;53.61
73566;BME280;61846;52.970;-3.168;2023-10-13T05:13:34;98740.15;;;17.79;53.37
73566;BME280;61846;52.970;-3.168;2023-10-13T05:16:00;98739.33;;;17.88;53.35
73566;BME280;61846;52.970;-3.168;2023-10-13T05:18:26;98709.11;;;17.27;53.69
73566;BME280;61846;52.970;-3.168;2023-10-13T05:20:55;98661.79;;;17.52;53.49
73566;BME280;61846;52.970;-3.168;2023-10-13T05:23:16;98660.85;;;17.69;52.87
73566;BME280;61846;52.970;-3.168;2023-10-13T05:25:41;98690.98;;;16.59;56.08
73566;BME280;61846;52.970;-3.168;2023-10-13T05:28:07;98691.49;;;17.47;54.17
73566;BME280;61846;52.970;-3.168;2023-10-13T05:30:32;98689.00;;;16.97;54.97
73566;BME280;61846;52.970;-3.168;2023-10-13T05:32:58;98692.27;;;16.90;54.89
73566;BME280;61846;52.970;-3.168;2023-10-13T05:35:24;98676.37;;;16.12;57.40
73566;BME280;61846;52.970;-3.168;2023-10-13T05:37:48;98689.24;;;16.21;57.09
73566;BME280;61846;52.970;-3.168;2023-10-13T05:40:14;98711.35;;;16.93;55.58
73566;BME280;61846;52.970;-3.168;2023-10-13T05:42:39;98714.64;;;16.75;56.19
73566;BME280;61846;52.970;-3.168;2023-10-13T05:45:05;98680.55;;;17.11;54.61
73566;BME280;61846;52.970;-3.168;2023-10-13T05:47:30;98669.73;;;16.75;56.25
73566;BME280;61846;52.970;-3.168;2023-10-13T05:49:56;98678.17;;;16.48;56.84
73566;BME280;61846;52.970;-3.168;2023-10-13T05:52:21;98673.48;;;16.47;57.07
73566;BME280;61846;52.970;-3.168;2023-10-13T05:54:47;98664.02;;;17.15;54.91
73566;BME280;61846;52.970;-3.168;2023-10-13T05:57:12;98665.04;;;17.59;53.74
73566;BME280;61846;52.970;-3.168;2023-10-13T05:59:38;98670.15;;;17.75;53.79
73566;BME280;61846;52.970;-3.168;2023-10-13T06:02:02;98666.28;;;17.86;52.84
73566;BME280;61846;52.970;-3.168;2023-10-13T06:04:28;98675.97;;;17.85;52.57
73566;BME280;61846;52.970;-3.168;2023-10-13T06:06:53;98674.30;;;17.89;53.48
73566;BME280;61846;52.970;-3.168;2023-10-13T06:09:19;98668.17;;;17.63;53.29
73566;BME280;61846;52.970;-3.168;2023-10-13T06:11:44;98666.11;;;17.99;52.66
73566;BME280;61846;52.970;-3.168;2023-10-13T06:14:09;98665.65;;;17.74;52.77
73566;BME280;61846;52.970;-3.168;2023-10-13T06:16:35;98663.41;;;16.92;55.18
73566;BME280;61846;52.970;-3.168;2023-10-13T06:19:00;98667.35;;;17.72;53.40
73566;BME280;61846;52.970;-3.168;2023-10-13T06:21:26;98689.16;;;17.85;53.13
73566;BME280;61846;52.970;-3.168;2023-10-13T06:23:51;98696.11;;;18.21;52.95
73566;BME280;61846;52.970;-3.168;2023-10-13T06:26:16;98672.63;;;18.04;52.68
73566;BME280;61846;52.970;-3.168;2023-10-13T06:28:42;98667.09;;;17.48;53.71
73566;BME280;61846;52.970;-3.168;2023-10-13T06:31:08;98691.66;;;17.71;53.47
73566;BME280;61846;52.970;-3.168;2023-10-13T06:33:32;98697.23;;;17.80;53.73
73566;BME280;61846;52.970;-3.168;2023-10-13T06:35:58;98682.21;;;17.43;53.71
73566;BME280;61846;52.970;-3.168;2023-10-13T06:38:24;98660.29;;;17.73;53.56
73566;BME280;61846;52.970;-3.168;2023-10-13T06:40:49;98665.36;;;16.32;56.60
73566;BME280;61846;52.970;-3.168;2023-10-13T06:43:14;98726.38;;;15.53;60.49
73566;BME280;61846;52.970;-3.168;2023-10-13T06:45:40;98710.67;;;15.55;61.98
73566;BME280;61846;52.970;-3.168;2023-10-13T06:48:06;98683.40;;;16.21;59.71
73566;BME280;61846;52.970;-3.168;2023-10-13T06:50:30;98680.35;;;16.19;59.82
73566;BME280;61846;52.970;-3.168;2023-10-13T06:52:55;98695.65;;;16.76;58.07
73566;BME280;61846;52.970;-3.168;2023-10-13T06:55:21;98711.37;;;16.48;58.99
73566;BME280;61846;52.970;-3.168;2023-10-13T06:57:47;98727.57;;;16.03;58.96
73566;BME280;61846;52.970;-3.168;2023-10-13T07:00:13;98746.35;;;16.33;58.70
73566;BME280;61846;52.970;-3.168;2023-10-13T07:02:37;98748.03;;;16.66;56.97
73566;BME280;61846;52.970;-3.168;2023-10-13T07:05:03;98752.15;;;16.94;56.14
73566;BME280;61846;52.970;-3.168;2023-10-13T07:07:28;98743.09;;;17.28;56.11
73566;BME280;61846;52.970;-3.168;2023-10-13T07:09:53;98723.86;;;16.69;57.30
73566;BME280;61846;52.970;-3.168;2023-10-13T07:12:19;98719.28;;;16.81;57.23
73566;BME280;61846;52.970;-3.168;2023-10-13T07:14:46;98718.33;;;16.02;59.53
73566;BME280;61846;52.970;-3.168;2023-10-13T07:17:09;98722.05;;;16.91;57.33
73566;BME280;61846;52.970;-3.168;2023-10-13T07:19:35;98721.27;;;16.59;57.57
73566;BME280;61846;52.970;-3.168;2023-10-13T07:22:01;98718.72;;;17.14;57.01
73566;BME280;61846;52.970;-3.168;2023-10-13T07:24:26;98723.42;;;16.96;56.78
73566;BME280;61846;52.970;-3.168;2023-10-13T07:26:51;98725.38;;;16.57;57.71
73566;BME280;61846;52.970;-3.168;2023-10-13T07:29:17;98728.82;;;17.03;56.41
73566;BME280;61846;52.970;-3.168;2023-10-13T07:31:42;98735.59;;;17.34;55.87
73566;BME280;61846;52.970;-3.168;2023-10-13T07:34:07;98730.66;;;18.21;54.14
73566;BME280;61846;52.970;-3.168;2023-10-13T07:36:33;98724.13;;;17.72;54.18
73566;BME280;61846;52.970;-3.168;2023-10-13T07:38:58;98728.70;;;17.92;53.76
73566;BME280;61846;52.970;-3.168;2023-10-13T07:41:23;98727.97;;;17.70;54.22
73566;BME280;61846;52.970;-3.168;2023-10-13T07:43:49;98719.43;;;17.67;54.26
73566;BME280;61846;52.970;-3.168;2023-10-13T07:46:15;98721.68;;;18.00;54.57
73566;BME280;61846;52.970;-3.168;2023-10-13T07:48:40;98724.68;;;17.45;55.68
73566;BME280;61846;52.970;-3.168;2023-10-13T07:51:06;98725.05;;;17.46;55.97
73566;BME280;61846;52.970;-3.168;2023-10-13T07:53:31;98725.07;;;17.20;56.30
73566;BME280;61846;52.970;-3.168;2023-10-13T07:55:56;98723.42;;;17.25;56.96
73566;BME280;61846;52.970;-3.168;2023-10-13T07:58:22;98726.39;;;17.78;56.06
73566;BME280;61846;52.970;-3.168;2023-10-13T08:00:47;98733.85;;;17.89;55.20
73566;BME280;61846;52.970;-3.168;2023-10-13T08:03:12;98742.27;;;15.91;59.57
73566;BME280;61846;52.970;-3.168;2023-10-13T08:05:37;98742.49;;;15.86;60.38
73566;BME280;61846;52.970;-3.168;2023-10-13T08:08:03;98742.00;;;15.48;62.30
73566;BME280;61846;52.970;-3.168;2023-10-13T08:10:28;98737.74;;;16.39;60.39
73566;BME280;61846;52.970;-3.168;2023-10-13T08:12:54;98743.21;;;16.74;59.63
73566;BME280;61846;52.970;-3.168;2023-10-13T08:15:19;98738.43;;;17.36;58.19
73566;BME280;61846;52.970;-3.168;2023-10-13T08:17:44;98732.60;;;17.57;57.52
73566;BME280;61846;52.970;-3.168;2023-10-13T08:20:10;98746.15;;;17.84;57.19
73566;BME280;61846;52.970;-3.168;2023-10-13T08:22:35;98748.23;;;18.08;55.89
73566;BME280;61846;52.970;-3.168;2023-10-13T08:25:01;98745.72;;;18.17;55.51
73566;BME280;61846;52.970;-3.168;2023-10-13T08:27:26;98734.88;;;18.31;55.55
73566;BME280;61846;52.970;-3.168;2023-10-13T08:29:51;98750.48;;;17.76;56.98
73566;BME280;61846;52.970;-3.168;2023-10-13T08:32:17;98765.19;;;18.15;56.21
73566;BME280;61846;52.970;-3.168;2023-10-13T08:34:42;98772.79;;;18.31;56.03
73566;BME280;61846;52.970;-3.168;2023-10-13T08:37:08;98766.54;;;17.98;55.70
73566;BME280;61846;52.970;-3.168;2023-10-13T08:39:33;98750.32;;;18.54;55.29
73566;BME280;61846;52.970;-3.168;2023-10-13T08:41:59;98755.83;;;18.32;55.79
73566;BME280;61846;52.970;-3.168;2023-10-13T08:44:25;98752.65;;;18.57;55.47
73566;BME280;61846;52.970;-3.168;2023-10-13T08:46:49;98756.42;;;18.36;55.16
73566;BME280;61846;52.970;-3.168;2023-10-13T08:49:15;98765.72;;;18.71;55.09
73566;BME280;61846;52.970;-3.168;2023-10-13T08:51:41;98772.84;;;18.53;54.64
73566;BME280;61846;52.970;-3.168;2023-10-13T08:54:06;98783.70;;;18.54;54.70
73566;BME280;61846;52.970;-3.168;2023-10-13T08:56:30;98795.05;;;18.93;55.01
73566;BME280;61846;52.970;-3.168;2023-10-13T08:58:56;98800.63;;;18.73;54.52
73566;BME280;61846;52.970;-3.168;2023-10-13T09:01:23;98801.62;;;18.95;54.70
73566;BME280;61846;52.970;-3.168;2023-10-13T09:03:47;98799.31;;;18.72;54.91
73566;BME280;61846;52.970;-3.168;2023-10-13T09:06:13;98808.59;;;18.50;55.52
73566;BME280;61846;52.970;-3.168;2023-10-13T09:08:37;98811.72;;;17.65;58.08
73566;BME280;61846;52.970;-3.168;2023-10-13T09:11:03;98821.24;;;17.17;60.03
73566;BME280;61846;52.970;-3.168;2023-10-13T09:13:34;98823.55;;;17.29;59.46
73566;BME280;61846;52.970;-3.168;2023-10-13T09:15:53;98826.55;;;17.56;59.49
73566;BME280;61846;52.970;-3.168;2023-10-13T09:18:24;98829.63;;;16.78;60.86
73566;BME280;61846;52.970;-3.168;2023-10-13T09:20:44;98831.49;;;17.12;61.16
73566;BME280;61846;52.970;-3.168;2023-10-13T09:23:11;98838.52;;;16.70;62.02
73566;BME280;61846;52.970;-3.168;2023-10-13T09:25:36;98843.22;;;16.55;63.05
73566;BME280;61846;52.970;-3.168;2023-10-13T09:28:00;98843.64;;;15.42;65.55
73566;BME280;61846;52.970;-3.168;2023-10-13T09:30:25;98843.92;;;15.42;67.61
73566;BME280;61846;52.970;-3.168;2023-10-13T09:32:59;98850.06;;;15.55;68.01
73566;BME280;61846;52.970;-3.168;2023-10-13T09:35:18;98848.11;;;16.12;65.49
73566;BME280;61846;52.970;-3.168;2023-10-13T09:37:41;98851.24;;;15.82;66.30
73566;BME280;61846;52.970;-3.168;2023-10-13T09:40:08;98861.09;;;16.08;65.12
73566;BME280;61846;52.970;-3.168;2023-10-13T09:42:32;98873.78;;;16.01;65.44
73566;BME280;61846;52.970;-3.168;2023-10-13T09:44:57;98871.00;;;14.88;68.45
73566;BME280;61846;52.970;-3.168;2023-10-13T09:47:23;98870.73;;;14.97;68.67
73566;BME280;61846;52.970;-3.168;2023-10-13T09:49:49;98866.48;;;15.07;69.60
73566;BME280;61846;52.970;-3.168;2023-10-13T09:52:16;98871.48;;;15.33;69.76
73566;BME280;61846;52.970;-3.168;2023-10-13T09:54:40;98882.28;;;15.53;67.49
73566;BME280;61846;52.970;-3.168;2023-10-13T09:57:08;98881.82;;;15.93;66.82
73566;BME280;61846;52.970;-3.168;2023-10-13T09:59:32;98864.36;;;16.34;65.50
73566;BME280;61846;52.970;-3.168;2023-10-13T10:01:55;98859.34;;;15.31;67.88
73566;BME280;61846;52.970;-3.168;2023-10-13T10:04:20;98863.52;;;15.27;67.76
73566;BME280;61846;52.970;-3.168;2023-10-13T10:06:52;98853.32;;;15.88;67.21
73566;BME280;61846;52.970;-3.168;2023-10-13T10:09:11;98842.61;;;16.22;67.34
73566;BME280;61846;52.970;-3.168;2023-10-13T10:11:58;98848.45;;;17.05;63.43
73566;BME280;61846;52.970;-3.168;2023-10-13T10:14:10;98857.36;;;16.93;63.49
73566;BME280;61846;52.970;-3.168;2023-10-13T10:16:38;98857.98;;;17.31;60.36
73566;BME280;61846;52.970;-3.168;2023-10-13T10:19:01;98871.28;;;17.03;60.38
73566;BME280;61846;52.970;-3.168;2023-10-13T10:21:18;98882.64;;;16.90;58.55
73566;BME280;61846;52.970;-3.168;2023-10-13T10:23:52;98886.96;;;16.51;60.66
73566;BME280;61846;52.970;-3.168;2023-10-13T10:26:10;98897.87;;;16.34;61.48
73566;BME280;61846;52.970;-3.168;2023-10-13T10:28:36;98897.92;;;16.11;62.55
73566;BME280;61846;52.970;-3.168;2023-10-13T10:31:05;98896.55;;;16.13;60.81
73566;BME280;61846;52.970;-3.168;2023-10-13T10:33:30;98908.19;;;16.25;61.15
73566;BME280;61846;52.970;-3.168;2023-10-13T10:35:58;98917.94;;;15.88;62.58
73566;BME280;61846;52.970;-3.168;2023-10-13T10:38:18;98932.13;;;14.83;63.33
73566;BME280;61846;52.970;-3.168;2023-10-13T10:40:51;98935.86;;;15.13;64.12
73566;BME280;61846;52.970;-3.168;2023-10-13T10:43:07;98939.21;;;15.06;64.19
73566;BME280;61846;52.970;-3.168;2023-10-13T10:45:32;98935.83;;;15.94;61.29
73566;BME280;61846;52.970;-3.168;2023-10-13T10:47:58;98933.48;;;15.24;61.67
73566;BME280;61846;52.970;-3.168;2023-10-13T10:50:25;98936.84;;;15.35;60.95
73566;BME280;61846;52.970;-3.168;2023-10-13T10:52:48;98940.54;;;15.49;62.11
73566;BME280;61846;52.970;-3.168;2023-10-13T10:55:13;98943.68;;;15.58;61.04
73566;BME280;61846;52.970;-3.168;2023-10-13T10:57:39;98949.45;;;16.08;60.03
73566;BME280;61846;52.970;-3.168;2023-10-13T11:00:05;98958.41;;;16.47;57.85
73566;BME280;61846;52.970;-3.168;2023-10-13T11:02:30;98965.96;;;16.15;59.04
73566;BME280;61846;52.970;-3.168;2023-10-13T11:04:55;98969.88;;;15.75;60.07
73566;BME280;61846;52.970;-3.168;2023-10-13T11:07:21;98973.48;;;15.74;60.66
73566;BME280;61846;52.970;-3.168;2023-10-13T11:09:46;98976.57;;;16.48;59.68
73566;BME280;61846;52.970;-3.168;2023-10-13T11:12:13;98976.88;;;15.56;61.00
73566;BME280;61846;52.970;-3.168;2023-10-13T11:14:36;98976.71;;;15.17;61.56
73566;BME280;61846;52.970;-3.168;2023-10-13T11:17:02;98983.18;;;14.28;63.13
73566;BME280;61846;52.970;-3.168;2023-10-13T11:19:34;98988.95;;;14.46;62.56
73566;BME280;61846;52.970;-3.168;2023-10-13T11:21:53;98989.52;;;13.96;65.79
73566;BME280;61846;52.970;-3.168;2023-10-13T11:24:18;98981.90;;;13.61;66.17
73566;BME280;61846;52.970;-3.168;2023-10-13T11:26:44;98971.24;;;13.27;67.67
73566;BME280;61846;52.970;-3.168;2023-10-13T11:29:09;98966.82;;;13.85;67.58
73566;BME280;61846;52.970;-3.168;2023-10-13T11:31:35;98966.10;;;13.52;65.56
73566;BME280;61846;52.970;-3.168;2023-10-13T11:34:00;98970.95;;;14.28;64.93
73566;BME280;61846;52.970;-3.168;2023-10-13T11:36:25;98969.91;;;14.08;64.39
73566;BME280;61846;52.970;-3.168;2023-10-13T11:38:51;98980.33;;;13.58;64.13
73566;BME280;61846;52.970;-3.168;2023-10-13T11:41:16;98982.91;;;13.32;63.57
73566;BME280;61846;52.970;-3.168;2023-10-13T11:43:44;98976.90;;;13.40;62.92
73566;BME280;61846;52.970;-3.168;2023-10-13T11:46:07;98983.14;;;13.82;61.91
73566;BME280;61846;52.970;-3.168;2023-10-13T11:48:32;98983.44;;;13.85;62.72
73566;BME280;61846;52.970;-3.168;2023-10-13T11:50:58;98990.84;;;13.67;62.24
73566;BME280;61846;52.970;-3.168;2023-10-13T11:53:23;98985.43;;;13.43;62.48
73566;BME280;61846;52.970;-3.168;2023-10-13T11:55:49;98994.04;;;14.17;61.48
73566;BME280;61846;52.970;-3.168;2023-10-13T11:58:15;98990.08;;;14.08;59.40
73566;BME280;61846;52.970;-3.168;2023-10-13T12:00:40;98978.55;;;13.83;60.91
73566;BME280;61846;52.970;-3.168;2023-10-13T12:03:05;98981.51;;;13.25;63.50
73566;BME280;61846;52.970;-3.168;2023-10-13T12:05:32;98980.79;;;12.36;65.06
73566;BME280;61846;52.970;-3.168;2023-10-13T12:07:56;98986.68;;;12.94;64.74
73566;BME280;61846;52.970;-3.168;2023-10-13T12:10:21;98999.60;;;11.68;67.83
73566;BME280;61846;52.970;-3.168;2023-10-13T12:12:47;99002.10;;;11.81;68.01
73566;BME280;61846;52.970;-3.168;2023-10-13T12:15:12;99005.10;;;11.76;68.43
73566;BME280;61846;52.970;-3.168;2023-10-13T12:17:38;98997.40;;;11.85;69.60
73566;BME280;61846;52.970;-3.168;2023-10-13T12:20:05;98993.13;;;12.20;67.88
73566;BME280;61846;52.970;-3.168;2023-10-13T12:22:28;98991.70;;;12.22;66.06
73566;BME280;61846;52.970;-3.168;2023-10-13T12:24:54;98990.30;;;11.95;68.16
73566;BME280;61846;52.970;-3.168;2023-10-13T12:27:19;98996.80;;;11.57;70.48
73566;BME280;61846;52.970;-3.168;2023-10-13T12:29:45;98995.27;;;12.51;67.17
73566;BME280;61846;52.970;-3.168;2023-10-13T12:32:10;98999.06;;;12.60;66.69
73566;BME280;61846;52.970;-3.168;2023-10-13T12:34:36;98996.13;;;13.97;62.85
73566;BME280;61846;52.970;-3.168;2023-10-13T12:37:01;98999.42;;;13.78;63.09
73566;BME280;61846;52.970;-3.168;2023-10-13T12:39:27;98996.76;;;14.22;60.59